Current Weather

Grand Prairie Muni

Grand Prairie, Texas (KGPM)

Report from: Saturday, July 13, 2024 7:50 PM CDT
Current time: Saturday, July 13, 2024 8:14 PM CDT

Nearby weather – Weather history – Daily summaries
Weather forecast

Temperature30.0°C (86.0°F)
Heat index32.0°C (89.6°F)
Dew point20.0°C (68.0°F)
Winds 12 kts (6.2 m/s, 13.8 mph) South-Southeast (160°)
Wind gusts 19 kts (9.8 m/s, 21.9 mph)
Visibility10 mi. (16.1 km)
Clouds Sky clear
Altimeter30.12 in.Hg (1020 mB)
Relative humidity55 %
Density altitude1,811 ft. (552 m)
Flight conditions Visual Meteorological Conditions
Raw dataKGPM 140050Z 16012G19KT 10SM SKC 30/20 A3012
An error has occurred. This application may no longer respond until reloaded. Reload 🗙